sensor_id;sensor_type;location;lat;lon;timestamp;pressure;altitude;pressure_sealevel;temperature;humidity
71772;BME280;59606;52.138;5.424;2022-07-18T00:01:55;102553.94;;;19.08;60.30
71772;BME280;59606;52.138;5.424;2022-07-18T00:04:22;102550.00;;;19.01;60.32
71772;BME280;59606;52.138;5.424;2022-07-18T00:06:49;102559.16;;;18.96;60.36
71772;BME280;59606;52.138;5.424;2022-07-18T00:09:15;102550.00;;;18.87;60.82
71772;BME280;59606;52.138;5.424;2022-07-18T00:11:42;102553.97;;;18.80;61.18
71772;BME280;59606;52.138;5.424;2022-07-18T00:14:08;102557.81;;;18.74;61.00
71772;BME280;59606;52.138;5.424;2022-07-18T00:16:35;102552.91;;;18.68;61.28
71772;BME280;59606;52.138;5.424;2022-07-18T00:19:02;102553.09;;;18.65;61.67
71772;BME280;59606;52.138;5.424;2022-07-18T00:21:29;102548.09;;;18.60;61.41
71772;BME280;59606;52.138;5.424;2022-07-18T00:24:02;102547.44;;;18.57;62.12
71772;BME280;59606;52.138;5.424;2022-07-18T00:26:29;102546.03;;;18.51;62.43
71772;BME280;59606;52.138;5.424;2022-07-18T00:28:56;102540.28;;;18.45;62.40
71772;BME280;59606;52.138;5.424;2022-07-18T00:31:22;102535.19;;;18.42;62.41
71772;BME280;59606;52.138;5.424;2022-07-18T00:33:49;102543.34;;;18.37;62.56
71772;BME280;59606;52.138;5.424;2022-07-18T00:36:15;102540.25;;;18.30;62.74
71772;BME280;59606;52.138;5.424;2022-07-18T00:38:42;102532.81;;;18.23;62.87
71772;BME280;59606;52.138;5.424;2022-07-18T00:41:08;102539.22;;;18.19;63.20
71772;BME280;59606;52.138;5.424;2022-07-18T00:43:35;102535.97;;;18.13;63.28
71772;BME280;59606;52.138;5.424;2022-07-18T00:46:01;102526.47;;;18.11;63.34
71772;BME280;59606;52.138;5.424;2022-07-18T00:48:28;102529.31;;;18.08;63.65
71772;BME280;59606;52.138;5.424;2022-07-18T00:50:54;102525.22;;;18.02;63.75
71772;BME280;59606;52.138;5.424;2022-07-18T00:53:21;102521.81;;;18.00;63.91
71772;BME280;59606;52.138;5.424;2022-07-18T00:55:51;102522.94;;;17.96;64.16
71772;BME280;59606;52.138;5.424;2022-07-18T00:58:18;102514.56;;;17.89;63.91
71772;BME280;59606;52.138;5.424;2022-07-18T01:00:45;102519.16;;;17.86;64.21
71772;BME280;59606;52.138;5.424;2022-07-18T01:03:30;102523.88;;;17.81;64.36
71772;BME280;59606;52.138;5.424;2022-07-18T01:05:56;102525.03;;;17.75;64.72
71772;BME280;59606;52.138;5.424;2022-07-18T01:08:25;102522.69;;;17.71;64.70
71772;BME280;59606;52.138;5.424;2022-07-18T01:10:52;102521.13;;;17.66;64.43
71772;BME280;59606;52.138;5.424;2022-07-18T01:13:20;102519.72;;;17.61;64.72
71772;BME280;59606;52.138;5.424;2022-07-18T01:15:47;102516.41;;;17.57;64.77
71772;BME280;59606;52.138;5.424;2022-07-18T01:18:13;102517.50;;;17.53;65.29
71772;BME280;59606;52.138;5.424;2022-07-18T01:20:40;102528.16;;;17.52;65.33
71772;BME280;59606;52.138;5.424;2022-07-18T01:23:06;102517.00;;;17.47;65.28
71772;BME280;59606;52.138;5.424;2022-07-18T01:25:33;102529.44;;;17.44;65.17
71772;BME280;59606;52.138;5.424;2022-07-18T01:28:00;102516.44;;;17.41;65.46
71772;BME280;59606;52.138;5.424;2022-07-18T01:30:26;102514.03;;;17.37;65.50
71772;BME280;59606;52.138;5.424;2022-07-18T01:32:57;102516.94;;;17.32;65.60
71772;BME280;59606;52.138;5.424;2022-07-18T01:35:26;102517.13;;;17.29;65.62
71772;BME280;59606;52.138;5.424;2022-07-18T01:37:55;102516.44;;;17.26;66.14
71772;BME280;59606;52.138;5.424;2022-07-18T01:40:23;102519.25;;;17.23;66.27
71772;BME280;59606;52.138;5.424;2022-07-18T01:42:50;102514.16;;;17.19;66.26
71772;BME280;59606;52.138;5.424;2022-07-18T01:45:17;102517.91;;;17.15;66.66
71772;BME280;59606;52.138;5.424;2022-07-18T01:47:44;102511.84;;;17.13;66.59
71772;BME280;59606;52.138;5.424;2022-07-18T01:50:12;102502.44;;;17.09;66.65
71772;BME280;59606;52.138;5.424;2022-07-18T01:52:39;102504.38;;;17.06;66.92
71772;BME280;59606;52.138;5.424;2022-07-18T01:55:08;102497.59;;;17.02;67.18
71772;BME280;59606;52.138;5.424;2022-07-18T01:57:35;102495.91;;;17.01;67.21
71772;BME280;59606;52.138;5.424;2022-07-18T02:00:04;102492.50;;;16.99;67.33
71772;BME280;59606;52.138;5.424;2022-07-18T02:02:31;102495.41;;;16.94;67.38
71772;BME280;59606;52.138;5.424;2022-07-18T02:04:58;102505.25;;;16.90;67.36
71772;BME280;59606;52.138;5.424;2022-07-18T02:07:29;102499.31;;;16.87;67.52
71772;BME280;59606;52.138;5.424;2022-07-18T02:09:56;102507.28;;;16.85;67.61
71772;BME280;59606;52.138;5.424;2022-07-18T02:12:23;102509.31;;;16.80;67.82
71772;BME280;59606;52.138;5.424;2022-07-18T02:14:50;102505.06;;;16.78;68.11
71772;BME280;59606;52.138;5.424;2022-07-18T02:17:18;102492.09;;;16.73;68.18
71772;BME280;59606;52.138;5.424;2022-07-18T02:19:46;102490.50;;;16.70;68.23
71772;BME280;59606;52.138;5.424;2022-07-18T02:22:13;102495.00;;;16.68;68.33
71772;BME280;59606;52.138;5.424;2022-07-18T02:24:39;102490.75;;;16.66;68.35
71772;BME280;59606;52.138;5.424;2022-07-18T02:27:06;102487.38;;;16.64;68.33
71772;BME280;59606;52.138;5.424;2022-07-18T02:29:33;102477.84;;;16.61;68.24
71772;BME280;59606;52.138;5.424;2022-07-18T02:31:59;102475.28;;;16.60;68.36
71772;BME280;59606;52.138;5.424;2022-07-18T02:34:26;102471.91;;;16.58;68.15
71772;BME280;59606;52.138;5.424;2022-07-18T02:36:52;102470.97;;;16.59;68.41
71772;BME280;59606;52.138;5.424;2022-07-18T02:39:19;102475.47;;;16.57;68.41
71772;BME280;59606;52.138;5.424;2022-07-18T02:41:46;102474.00;;;16.51;68.33
71772;BME280;59606;52.138;5.424;2022-07-18T02:44:13;102474.19;;;16.48;68.37
71772;BME280;59606;52.138;5.424;2022-07-18T02:46:40;102478.66;;;16.46;68.52
71772;BME280;59606;52.138;5.424;2022-07-18T02:49:07;102480.59;;;16.42;68.48
71772;BME280;59606;52.138;5.424;2022-07-18T02:51:34;102493.06;;;16.39;68.60
71772;BME280;59606;52.138;5.424;2022-07-18T02:54:00;102484.50;;;16.35;68.88
71772;BME280;59606;52.138;5.424;2022-07-18T02:56:27;102494.25;;;16.33;68.98
71772;BME280;59606;52.138;5.424;2022-07-18T02:58:54;102484.75;;;16.31;69.27
71772;BME280;59606;52.138;5.424;2022-07-18T03:01:20;102476.91;;;16.29;69.01
71772;BME280;59606;52.138;5.424;2022-07-18T03:03:47;102484.13;;;16.25;69.51
71772;BME280;59606;52.138;5.424;2022-07-18T03:06:14;102487.75;;;16.23;69.63
71772;BME280;59606;52.138;5.424;2022-07-18T03:08:40;102475.66;;;16.20;69.71
71772;BME280;59606;52.138;5.424;2022-07-18T03:11:07;102477.44;;;16.20;69.92
71772;BME280;59606;52.138;5.424;2022-07-18T03:13:33;102474.97;;;16.17;69.66
71772;BME280;59606;52.138;5.424;2022-07-18T03:16:00;102477.75;;;16.14;69.88
71772;BME280;59606;52.138;5.424;2022-07-18T03:18:27;102472.53;;;16.12;70.01
71772;BME280;59606;52.138;5.424;2022-07-18T03:20:53;102466.59;;;16.09;69.86
71772;BME280;59606;52.138;5.424;2022-07-18T03:23:20;102465.84;;;16.07;70.10
71772;BME280;59606;52.138;5.424;2022-07-18T03:25:47;102461.66;;;16.02;69.89
71772;BME280;59606;52.138;5.424;2022-07-18T03:28:13;102463.53;;;16.00;70.01
71772;BME280;59606;52.138;5.424;2022-07-18T03:30:40;102458.34;;;15.99;70.10
71772;BME280;59606;52.138;5.424;2022-07-18T03:33:07;102445.34;;;15.96;70.08
71772;BME280;59606;52.138;5.424;2022-07-18T03:35:33;102449.91;;;15.92;70.38
71772;BME280;59606;52.138;5.424;2022-07-18T03:38:00;102445.69;;;15.90;70.58
71772;BME280;59606;52.138;5.424;2022-07-18T03:40:27;102446.59;;;15.89;70.42
71772;BME280;59606;52.138;5.424;2022-07-18T03:42:53;102436.25;;;15.86;70.27
71772;BME280;59606;52.138;5.424;2022-07-18T03:45:20;102435.41;;;15.85;70.45
71772;BME280;59606;52.138;5.424;2022-07-18T03:47:46;102432.91;;;15.82;70.43
71772;BME280;59606;52.138;5.424;2022-07-18T03:50:13;102430.38;;;15.81;70.66
71772;BME280;59606;52.138;5.424;2022-07-18T03:52:39;102434.00;;;15.78;70.62
71772;BME280;59606;52.138;5.424;2022-07-18T03:55:08;102422.72;;;15.76;70.56
71772;BME280;59606;52.138;5.424;2022-07-18T03:57:35;102421.88;;;15.75;70.41
71772;BME280;59606;52.138;5.424;2022-07-18T04:00:04;102418.50;;;15.73;70.83
71772;BME280;59606;52.138;5.424;2022-07-18T04:02:31;102421.28;;;15.70;71.10
71772;BME280;59606;52.138;5.424;2022-07-18T04:04:57;102424.06;;;15.67;71.09
71772;BME280;59606;52.138;5.424;2022-07-18T04:07:24;102423.22;;;15.67;71.10
71772;BME280;59606;52.138;5.424;2022-07-18T04:09:50;102422.22;;;15.69;70.94
71772;BME280;59606;52.138;5.424;2022-07-18T04:12:19;102418.72;;;15.69;70.90
71772;BME280;59606;52.138;5.424;2022-07-18T04:14:46;102411.72;;;15.69;71.18
71772;BME280;59606;52.138;5.424;2022-07-18T04:17:13;102415.25;;;15.68;70.74
71772;BME280;59606;52.138;5.424;2022-07-18T04:19:39;102411.72;;;15.69;70.09
71772;BME280;59606;52.138;5.424;2022-07-18T04:22:06;102403.81;;;15.69;69.87
71772;BME280;59606;52.138;5.424;2022-07-18T04:24:32;102416.88;;;15.71;69.87
71772;BME280;59606;52.138;5.424;2022-07-18T04:26:59;102412.47;;;15.71;69.86
71772;BME280;59606;52.138;5.424;2022-07-18T04:29:25;102415.94;;;15.72;70.58
71772;BME280;59606;52.138;5.424;2022-07-18T04:31:52;102415.03;;;15.73;70.47
71772;BME280;59606;52.138;5.424;2022-07-18T04:34:19;102403.56;;;15.74;70.58
71772;BME280;59606;52.138;5.424;2022-07-18T04:36:45;102408.69;;;15.77;70.64
71772;BME280;59606;52.138;5.424;2022-07-18T04:39:11;102413.00;;;15.78;71.07
71772;BME280;59606;52.138;5.424;2022-07-18T04:41:38;102409.38;;;15.81;71.05
71772;BME280;59606;52.138;5.424;2022-07-18T04:44:05;102404.78;;;15.84;70.79
71772;BME280;59606;52.138;5.424;2022-07-18T04:46:32;102415.06;;;15.89;70.32
71772;BME280;59606;52.138;5.424;2022-07-18T04:48:59;102403.63;;;15.90;69.67
71772;BME280;59606;52.138;5.424;2022-07-18T04:51:25;102404.22;;;15.95;69.01
71772;BME280;59606;52.138;5.424;2022-07-18T04:53:52;102407.47;;;16.00;68.80
71772;BME280;59606;52.138;5.424;2022-07-18T04:56:21;102415.03;;;16.06;67.75
71772;BME280;59606;52.138;5.424;2022-07-18T04:58:48;102419.06;;;16.13;67.46
71772;BME280;59606;52.138;5.424;2022-07-18T05:01:14;102417.00;;;16.18;66.89
71772;BME280;59606;52.138;5.424;2022-07-18T05:03:41;102428.00;;;16.26;66.29
71772;BME280;59606;52.138;5.424;2022-07-18T05:06:08;102423.31;;;16.32;66.71
71772;BME280;59606;52.138;5.424;2022-07-18T05:08:34;102425.47;;;16.41;66.31
71772;BME280;59606;52.138;5.424;2022-07-18T05:11:01;102427.66;;;16.48;66.70
71772;BME280;59606;52.138;5.424;2022-07-18T05:13:27;102421.38;;;16.51;66.24
71772;BME280;59606;52.138;5.424;2022-07-18T05:15:54;102422.25;;;16.52;66.82
71772;BME280;59606;52.138;5.424;2022-07-18T05:18:20;102421.28;;;16.53;66.07
71772;BME280;59606;52.138;5.424;2022-07-18T05:20:47;102418.75;;;16.51;65.64
71772;BME280;59606;52.138;5.424;2022-07-18T05:23:14;102426.50;;;16.54;65.24
71772;BME280;59606;52.138;5.424;2022-07-18T05:25:41;102420.38;;;16.54;65.18
71772;BME280;59606;52.138;5.424;2022-07-18T05:28:08;102418.59;;;16.54;66.31
71772;BME280;59606;52.138;5.424;2022-07-18T05:30:35;102424.59;;;16.56;67.01
71772;BME280;59606;52.138;5.424;2022-07-18T05:33:01;102424.44;;;16.59;67.71
71772;BME280;59606;52.138;5.424;2022-07-18T05:35:29;102413.50;;;16.67;67.07
71772;BME280;59606;52.138;5.424;2022-07-18T05:37:55;102424.38;;;16.77;68.32
71772;BME280;59606;52.138;5.424;2022-07-18T05:40:22;102411.56;;;16.86;67.28
71772;BME280;59606;52.138;5.424;2022-07-18T05:42:48;102404.66;;;17.00;66.67
71772;BME280;59606;52.138;5.424;2022-07-18T05:45:21;102410.25;;;17.09;65.80
71772;BME280;59606;52.138;5.424;2022-07-18T05:47:47;102408.72;;;17.21;65.26
71772;BME280;59606;52.138;5.424;2022-07-18T05:50:14;102399.69;;;17.25;64.05
71772;BME280;59606;52.138;5.424;2022-07-18T05:52:40;102405.78;;;17.41;65.17
71772;BME280;59606;52.138;5.424;2022-07-18T05:55:07;102400.72;;;17.67;64.43
71772;BME280;59606;52.138;5.424;2022-07-18T05:57:35;102396.47;;;17.95;61.92
71772;BME280;59606;52.138;5.424;2022-07-18T06:00:07;102383.69;;;18.44;61.29
71772;BME280;59606;52.138;5.424;2022-07-18T06:02:34;102383.06;;;19.09;59.15
71772;BME280;59606;52.138;5.424;2022-07-18T06:05:01;102373.84;;;19.67;56.84
71772;BME280;59606;52.138;5.424;2022-07-18T06:07:48;102367.69;;;20.05;55.23
71772;BME280;59606;52.138;5.424;2022-07-18T06:10:15;102368.88;;;20.75;53.48
71772;BME280;59606;52.138;5.424;2022-07-18T06:12:41;102367.47;;;21.52;51.67
71772;BME280;59606;52.138;5.424;2022-07-18T06:15:08;102374.03;;;21.82;49.88
71772;BME280;59606;52.138;5.424;2022-07-18T06:17:35;102373.75;;;21.62;50.43
71772;BME280;59606;52.138;5.424;2022-07-18T06:20:03;102366.63;;;21.40;50.81
71772;BME280;59606;52.138;5.424;2022-07-18T06:22:31;102362.44;;;21.14;50.94
71772;BME280;59606;52.138;5.424;2022-07-18T06:24:58;102370.59;;;21.00;52.21
71772;BME280;59606;52.138;5.424;2022-07-18T06:27:24;102360.78;;;20.65;52.73
71772;BME280;59606;52.138;5.424;2022-07-18T06:29:51;102371.34;;;20.28;54.30
71772;BME280;59606;52.138;5.424;2022-07-18T06:32:17;102369.63;;;19.90;54.71
71772;BME280;59606;52.138;5.424;2022-07-18T06:34:44;102369.19;;;19.71;56.06
71772;BME280;59606;52.138;5.424;2022-07-18T06:37:11;102373.03;;;19.80;57.26
71772;BME280;59606;52.138;5.424;2022-07-18T06:39:37;102379.69;;;19.85;56.47
71772;BME280;59606;52.138;5.424;2022-07-18T06:42:04;102372.69;;;19.84;57.27
71772;BME280;59606;52.138;5.424;2022-07-18T06:44:31;102378.72;;;19.86;56.39
71772;BME280;59606;52.138;5.424;2022-07-18T06:46:57;102372.47;;;19.87;56.98
71772;BME280;59606;52.138;5.424;2022-07-18T06:49:25;102382.22;;;19.87;56.40
71772;BME280;59606;52.138;5.424;2022-07-18T06:51:52;102380.19;;;19.90;56.37
71772;BME280;59606;52.138;5.424;2022-07-18T06:54:19;102380.50;;;19.98;56.43
71772;BME280;59606;52.138;5.424;2022-07-18T06:56:46;102374.78;;;20.05;56.49
71772;BME280;59606;52.138;5.424;2022-07-18T06:59:13;102368.00;;;20.13;57.13
71772;BME280;59606;52.138;5.424;2022-07-18T07:01:39;102374.97;;;20.27;56.00
71772;BME280;59606;52.138;5.424;2022-07-18T07:04:06;102367.06;;;20.38;55.95
71772;BME280;59606;52.138;5.424;2022-07-18T07:06:32;102364.81;;;20.58;56.28
71772;BME280;59606;52.138;5.424;2022-07-18T07:08:59;102363.28;;;20.79;55.68
71772;BME280;59606;52.138;5.424;2022-07-18T07:11:25;102371.25;;;20.90;55.70
71772;BME280;59606;52.138;5.424;2022-07-18T07:13:52;102354.78;;;20.98;54.18
71772;BME280;59606;52.138;5.424;2022-07-18T07:16:18;102358.28;;;20.99;54.47
71772;BME280;59606;52.138;5.424;2022-07-18T07:18:45;102352.41;;;21.06;53.99
71772;BME280;59606;52.138;5.424;2022-07-18T07:21:11;102344.94;;;21.11;54.07
71772;BME280;59606;52.138;5.424;2022-07-18T07:23:45;102364.13;;;21.15;53.42
71772;BME280;59606;52.138;5.424;2022-07-18T07:26:11;102363.16;;;21.16;53.77
71772;BME280;59606;52.138;5.424;2022-07-18T07:28:38;102361.63;;;21.25;53.67
71772;BME280;59606;52.138;5.424;2022-07-18T07:31:05;102355.41;;;21.37;53.22
71772;BME280;59606;52.138;5.424;2022-07-18T07:33:32;102361.84;;;21.57;52.28
71772;BME280;59606;52.138;5.424;2022-07-18T07:35:59;102347.28;;;21.74;52.97
71772;BME280;59606;52.138;5.424;2022-07-18T07:38:26;102352.47;;;21.86;51.38
71772;BME280;59606;52.138;5.424;2022-07-18T07:40:55;102353.41;;;21.97;51.56
71772;BME280;59606;52.138;5.424;2022-07-18T07:43:22;102360.03;;;22.13;52.00
71772;BME280;59606;52.138;5.424;2022-07-18T07:45:50;102365.13;;;22.28;51.60
71772;BME280;59606;52.138;5.424;2022-07-18T07:48:19;102366.69;;;22.30;51.33
71772;BME280;59606;52.138;5.424;2022-07-18T07:50:46;102370.53;;;22.38;49.02
71772;BME280;59606;52.138;5.424;2022-07-18T07:53:12;102372.81;;;22.42;49.78
71772;BME280;59606;52.138;5.424;2022-07-18T07:55:39;102358.41;;;22.56;50.04
71772;BME280;59606;52.138;5.424;2022-07-18T07:58:06;102355.13;;;22.64;50.24
71772;BME280;59606;52.138;5.424;2022-07-18T08:00:32;102351.94;;;22.81;49.02
71772;BME280;59606;52.138;5.424;2022-07-18T08:03:04;102358.06;;;22.93;49.34
71772;BME280;59606;52.138;5.424;2022-07-18T08:05:33;102351.97;;;23.02;49.09
71772;BME280;59606;52.138;5.424;2022-07-18T08:08:00;102348.66;;;23.10;49.59
71772;BME280;59606;52.138;5.424;2022-07-18T08:10:28;102345.97;;;23.21;47.57
71772;BME280;59606;52.138;5.424;2022-07-18T08:12:56;102338.16;;;23.29;46.87
71772;BME280;59606;52.138;5.424;2022-07-18T08:15:23;102339.53;;;23.23;45.84
71772;BME280;59606;52.138;5.424;2022-07-18T08:17:50;102339.66;;;23.22;45.88
71772;BME280;59606;52.138;5.424;2022-07-18T08:20:17;102341.41;;;23.33;46.35
71772;BME280;59606;52.138;5.424;2022-07-18T08:23:01;102333.94;;;23.47;46.51
71772;BME280;59606;52.138;5.424;2022-07-18T08:25:30;102329.06;;;23.52;45.95
71772;BME280;59606;52.138;5.424;2022-07-18T08:27:57;102332.03;;;23.59;46.07
71772;BME280;59606;52.138;5.424;2022-07-18T08:30:24;102338.50;;;23.66;45.65
71772;BME280;59606;52.138;5.424;2022-07-18T08:32:51;102328.78;;;23.76;45.21
71772;BME280;59606;52.138;5.424;2022-07-18T08:35:19;102334.59;;;23.91;45.38
71772;BME280;59606;52.138;5.424;2022-07-18T08:37:45;102326.63;;;24.01;44.08
71772;BME280;59606;52.138;5.424;2022-07-18T08:40:12;102332.69;;;24.13;43.56
71772;BME280;59606;52.138;5.424;2022-07-18T08:42:40;102337.47;;;24.29;44.86
71772;BME280;59606;52.138;5.424;2022-07-18T08:45:26;102328.84;;;24.46;43.03
71772;BME280;59606;52.138;5.424;2022-07-18T08:47:53;102338.81;;;24.63;44.81
71772;BME280;59606;52.138;5.424;2022-07-18T08:50:20;102327.88;;;24.76;45.02
71772;BME280;59606;52.138;5.424;2022-07-18T08:52:48;102336.28;;;24.91;43.11
71772;BME280;59606;52.138;5.424;2022-07-18T08:55:20;102334.03;;;25.06;42.21
71772;BME280;59606;52.138;5.424;2022-07-18T08:57:53;102339.38;;;25.15;41.32
71772;BME280;59606;52.138;5.424;2022-07-18T09:00:20;102339.03;;;25.38;41.21
71772;BME280;59606;52.138;5.424;2022-07-18T09:03:00;102333.50;;;25.59;41.34
71772;BME280;59606;52.138;5.424;2022-07-18T09:05:28;102334.69;;;25.74;43.00
71772;BME280;59606;52.138;5.424;2022-07-18T09:08:15;102333.22;;;25.99;41.81
71772;BME280;59606;52.138;5.424;2022-07-18T09:10:55;102335.91;;;26.17;41.43
71772;BME280;59606;52.138;5.424;2022-07-18T09:13:24;102334.38;;;26.15;39.88
71772;BME280;59606;52.138;5.424;2022-07-18T09:16:13;102336.25;;;26.04;40.02
71772;BME280;59606;52.138;5.424;2022-07-18T09:18:45;102338.25;;;26.02;40.22
71772;BME280;59606;52.138;5.424;2022-07-18T09:21:17;102330.72;;;25.88;37.99
71772;BME280;59606;52.138;5.424;2022-07-18T09:23:47;102332.56;;;25.78;40.86
71772;BME280;59606;52.138;5.424;2022-07-18T09:26:36;102334.69;;;25.74;40.25
71772;BME280;59606;52.138;5.424;2022-07-18T09:29:04;102332.31;;;25.71;39.73
71772;BME280;59606;52.138;5.424;2022-07-18T09:31:51;102330.78;;;25.69;40.82
71772;BME280;59606;52.138;5.424;2022-07-18T09:34:36;102332.22;;;25.63;40.45
71772;BME280;59606;52.138;5.424;2022-07-18T09:37:03;102327.31;;;25.58;40.57
71772;BME280;59606;52.138;5.424;2022-07-18T09:39:31;102331.13;;;25.56;41.27
71772;BME280;59606;52.138;5.424;2022-07-18T09:42:17;102327.63;;;25.55;40.76
71772;BME280;59606;52.138;5.424;2022-07-18T09:44:59;102321.25;;;25.66;40.60
71772;BME280;59606;52.138;5.424;2022-07-18T09:47:26;102315.63;;;25.69;40.16
71772;BME280;59606;52.138;5.424;2022-07-18T09:49:53;102325.88;;;25.64;41.77
71772;BME280;59606;52.138;5.424;2022-07-18T09:52:21;102328.59;;;25.54;40.15
71772;BME280;59606;52.138;5.424;2022-07-18T09:54:47;102324.44;;;25.42;39.69
71772;BME280;59606;52.138;5.424;2022-07-18T09:57:26;102318.13;;;25.33;40.00
71772;BME280;59606;52.138;5.424;2022-07-18T09:59:53;102315.44;;;25.43;40.52
71772;BME280;59606;52.138;5.424;2022-07-18T10:02:20;102308.31;;;25.61;41.00
71772;BME280;59606;52.138;5.424;2022-07-18T10:04:47;102310.59;;;25.94;40.27
71772;BME280;59606;52.138;5.424;2022-07-18T10:07:15;102313.41;;;26.20;40.42
71772;BME280;59606;52.138;5.424;2022-07-18T10:09:42;102300.88;;;26.38;38.94
71772;BME280;59606;52.138;5.424;2022-07-18T10:12:13;102297.38;;;26.55;38.15
71772;BME280;59606;52.138;5.424;2022-07-18T10:14:40;102303.19;;;26.69;38.22
71772;BME280;59606;52.138;5.424;2022-07-18T10:17:07;102299.16;;;26.65;35.72
71772;BME280;59606;52.138;5.424;2022-07-18T10:19:34;102303.94;;;26.79;39.05
71772;BME280;59606;52.138;5.424;2022-07-18T10:22:02;102303.22;;;26.95;36.47
71772;BME280;59606;52.138;5.424;2022-07-18T10:24:30;102295.41;;;27.01;36.79
71772;BME280;59606;52.138;5.424;2022-07-18T10:27:13;102299.56;;;27.14;34.93
71772;BME280;59606;52.138;5.424;2022-07-18T10:30:07;102295.91;;;27.23;36.40
71772;BME280;59606;52.138;5.424;2022-07-18T10:32:34;102295.50;;;27.36;36.11
71772;BME280;59606;52.138;5.424;2022-07-18T10:35:01;102293.06;;;27.50;35.56
71772;BME280;59606;52.138;5.424;2022-07-18T10:37:31;102304.00;;;27.65;34.61
71772;BME280;59606;52.138;5.424;2022-07-18T10:40:26;102302.84;;;27.68;34.47
71772;BME280;59606;52.138;5.424;2022-07-18T10:45:59;102292.41;;;27.91;31.72
71772;BME280;59606;52.138;5.424;2022-07-18T10:57:03;102289.69;;;28.41;31.86
71772;BME280;59606;52.138;5.424;2022-07-18T10:59:30;102289.34;;;28.53;31.81
71772;BME280;59606;52.138;5.424;2022-07-18T11:01:57;102291.72;;;28.64;32.09
71772;BME280;59606;52.138;5.424;2022-07-18T11:04:33;102291.72;;;28.56;32.12
71772;BME280;59606;52.138;5.424;2022-07-18T11:07:11;102286.00;;;28.67;31.54
71772;BME280;59606;52.138;5.424;2022-07-18T11:09:47;102287.66;;;28.76;31.11
71772;BME280;59606;52.138;5.424;2022-07-18T11:12:28;102278.97;;;28.82;29.38
71772;BME280;59606;52.138;5.424;2022-07-18T11:15:07;102274.25;;;28.93;30.18
71772;BME280;59606;52.138;5.424;2022-07-18T11:23:02;102266.34;;;29.16;30.21
71772;BME280;59606;52.138;5.424;2022-07-18T11:25:29;102272.16;;;29.27;29.34
71772;BME280;59606;52.138;5.424;2022-07-18T11:28:15;102275.34;;;29.31;30.08
71772;BME280;59606;52.138;5.424;2022-07-18T11:30:43;102262.06;;;29.37;30.51
71772;BME280;59606;52.138;5.424;2022-07-18T11:33:26;102265.78;;;29.36;30.58
71772;BME280;59606;52.138;5.424;2022-07-18T11:36:04;102259.84;;;29.49;31.18
71772;BME280;59606;52.138;5.424;2022-07-18T11:38:31;102256.28;;;29.57;29.90
71772;BME280;59606;52.138;5.424;2022-07-18T11:40:58;102258.97;;;29.65;29.22
71772;BME280;59606;52.138;5.424;2022-07-18T11:43:25;102256.28;;;29.65;29.71
71772;BME280;59606;52.138;5.424;2022-07-18T11:46:10;102254.09;;;29.69;29.69
71772;BME280;59606;52.138;5.424;2022-07-18T11:48:45;102251.34;;;29.77;29.85
71772;BME280;59606;52.138;5.424;2022-07-18T11:51:14;102250.63;;;29.83;29.51
71772;BME280;59606;52.138;5.424;2022-07-18T11:53:51;102250.75;;;29.90;29.63
71772;BME280;59606;52.138;5.424;2022-07-18T11:56:20;102244.69;;;29.96;29.15
71772;BME280;59606;52.138;5.424;2022-07-18T11:58:49;102238.28;;;29.97;29.85
71772;BME280;59606;52.138;5.424;2022-07-18T12:01:16;102240.47;;;30.01;29.35
71772;BME280;59606;52.138;5.424;2022-07-18T12:03:47;102234.88;;;30.03;28.42
71772;BME280;59606;52.138;5.424;2022-07-18T12:06:22;102229.44;;;30.11;29.03
71772;BME280;59606;52.138;5.424;2022-07-18T12:08:52;102233.16;;;30.18;28.04
71772;BME280;59606;52.138;5.424;2022-07-18T12:14:02;102223.00;;;30.43;28.61
71772;BME280;59606;52.138;5.424;2022-07-18T12:16:40;102223.22;;;30.57;27.13
71772;BME280;59606;52.138;5.424;2022-07-18T12:27:17;102212.66;;;30.70;25.89
71772;BME280;59606;52.138;5.424;2022-07-18T12:30:10;102211.88;;;30.84;26.71
71772;BME280;59606;52.138;5.424;2022-07-18T12:32:53;102212.78;;;30.91;26.37
71772;BME280;59606;52.138;5.424;2022-07-18T12:35:28;102207.78;;;31.03;26.00
71772;BME280;59606;52.138;5.424;2022-07-18T12:37:57;102211.22;;;31.12;25.47
71772;BME280;59606;52.138;5.424;2022-07-18T12:43:16;102201.47;;;31.26;26.03
71772;BME280;59606;52.138;5.424;2022-07-18T12:45:47;102202.56;;;31.31;26.09
71772;BME280;59606;52.138;5.424;2022-07-18T12:48:14;102207.22;;;31.37;26.35
71772;BME280;59606;52.138;5.424;2022-07-18T12:50:42;102200.88;;;31.45;24.76
71772;BME280;59606;52.138;5.424;2022-07-18T12:53:11;102196.59;;;31.51;24.70
71772;BME280;59606;52.138;5.424;2022-07-18T12:55:38;102188.91;;;31.48;24.94
71772;BME280;59606;52.138;5.424;2022-07-18T12:58:06;102193.16;;;31.57;25.05
71772;BME280;59606;52.138;5.424;2022-07-18T13:00:33;102183.22;;;31.57;25.62
71772;BME280;59606;52.138;5.424;2022-07-18T13:03:00;102186.22;;;31.69;25.90
71772;BME280;59606;52.138;5.424;2022-07-18T13:05:28;102185.91;;;31.79;25.54
71772;BME280;59606;52.138;5.424;2022-07-18T13:07:55;102178.56;;;31.87;23.82
71772;BME280;59606;52.138;5.424;2022-07-18T13:10:21;102173.19;;;31.87;24.78
71772;BME280;59606;52.138;5.424;2022-07-18T13:12:48;102177.00;;;31.78;24.86
71772;BME280;59606;52.138;5.424;2022-07-18T13:15:15;102166.94;;;31.87;25.31
71772;BME280;59606;52.138;5.424;2022-07-18T13:17:41;102165.00;;;32.02;25.46
71772;BME280;59606;52.138;5.424;2022-07-18T13:20:08;102165.13;;;32.15;25.65
71772;BME280;59606;52.138;5.424;2022-07-18T13:22:35;102167.38;;;32.12;24.99
71772;BME280;59606;52.138;5.424;2022-07-18T13:25:06;102168.88;;;32.14;24.37
71772;BME280;59606;52.138;5.424;2022-07-18T13:27:33;102161.81;;;32.13;26.13
71772;BME280;59606;52.138;5.424;2022-07-18T13:30:00;102161.91;;;32.27;25.08